createdAt,value
2022-11-25T00:00:44.292Z,77.28
2022-11-25T00:03:06.227Z,77.43
2022-11-25T00:05:28.657Z,77.69
2022-11-25T00:07:50.588Z,77.56
2022-11-25T00:10:12.492Z,77.59
2022-11-25T00:12:34.511Z,77.60
2022-11-25T00:14:56.296Z,77.94
2022-11-25T00:17:18.095Z,77.95
2022-11-25T00:19:39.921Z,77.75
2022-11-25T00:22:01.696Z,78.13
2022-11-25T00:24:23.493Z,78.22
2022-11-25T00:26:45.509Z,78.04
2022-11-25T00:29:11.208Z,78.09
2022-11-25T00:31:37.201Z,78.32
2022-11-25T00:34:00.307Z,78.50
2022-11-25T00:36:23.989Z,78.39
2022-11-25T00:38:46.575Z,78.72
2022-11-25T00:41:26.740Z,78.78
2022-11-25T00:44:07.185Z,78.55
2022-11-25T00:46:29.016Z,78.37
2022-11-25T00:48:50.999Z,78.30
2022-11-25T00:51:12.760Z,78.41
2022-11-25T00:53:34.685Z,78.62
2022-11-25T00:56:13.975Z,78.57
2022-11-25T00:58:35.831Z,78.60
2022-11-25T01:01:02.438Z,78.71
2022-11-25T01:03:24.302Z,78.38
2022-11-25T01:05:47.485Z,78.39
2022-11-25T01:08:09.397Z,78.52
2022-11-25T01:10:33.132Z,78.63
2022-11-25T01:12:54.951Z,78.30
2022-11-25T01:15:17.000Z,78.33
2022-11-25T01:17:38.753Z,78.50
2022-11-25T01:20:00.537Z,78.55
2022-11-25T01:22:22.371Z,78.72
2022-11-25T01:24:44.235Z,78.64
2022-11-25T01:27:06.132Z,78.60
2022-11-25T01:29:28.155Z,78.84
2022-11-25T01:31:50.493Z,78.59
2022-11-25T01:34:22.988Z,78.96
2022-11-25T01:36:45.886Z,79.10
2022-11-25T01:39:07.917Z,78.71
2022-11-25T01:41:34.295Z,78.71
2022-11-25T01:44:29.047Z,79.00
2022-11-25T01:46:59.874Z,78.97
2022-11-25T01:49:57.684Z,79.13
2022-11-25T01:52:31.641Z,79.07
2022-11-25T01:54:58.587Z,79.25
2022-11-25T01:57:35.655Z,78.92
2022-11-25T02:00:04.121Z,78.94
2022-11-25T02:02:26.689Z,79.15
2022-11-25T02:04:49.603Z,79.30
2022-11-25T02:07:36.044Z,79.29
2022-11-25T02:10:01.820Z,79.01
2022-11-25T02:12:24.191Z,79.33
2022-11-25T02:14:48.870Z,79.25
2022-11-25T02:17:10.725Z,79.41
2022-11-25T02:19:57.177Z,79.07
2022-11-25T02:22:37.456Z,79.30
2022-11-25T02:25:24.633Z,79.50
2022-11-25T02:27:52.011Z,79.38
2022-11-25T02:30:14.584Z,79.24
2022-11-25T02:32:36.457Z,79.36
2022-11-25T02:34:58.298Z,79.37
2022-11-25T02:37:24.518Z,79.29
2022-11-25T02:39:49.657Z,79.30
2022-11-25T02:42:11.902Z,79.46
2022-11-25T02:44:34.278Z,79.75
2022-11-25T02:46:56.252Z,79.70
2022-11-25T02:49:18.042Z,79.94
2022-11-25T02:51:44.890Z,80.69
2022-11-25T02:54:07.374Z,81.06
2022-11-25T02:56:33.838Z,81.45
2022-11-25T02:58:56.522Z,81.69
2022-11-25T03:01:21.247Z,81.45
2022-11-25T03:03:45.041Z,81.81
2022-11-25T03:06:07.829Z,81.86
2022-11-25T03:08:29.642Z,82.19
2022-11-25T03:10:51.644Z,82.30
2022-11-25T03:13:13.554Z,82.63
2022-11-25T03:15:37.292Z,82.75
2022-11-25T03:17:59.273Z,82.65
2022-11-25T03:20:22.218Z,82.65
2022-11-25T03:22:44.716Z,82.82
2022-11-25T03:25:07.120Z,83.08
2022-11-25T03:27:30.462Z,83.26
2022-11-25T03:29:53.184Z,83.46
2022-11-25T03:32:16.097Z,83.38
2022-11-25T03:34:38.620Z,83.01
2022-11-25T03:37:00.744Z,83.08
2022-11-25T03:39:25.377Z,82.81
2022-11-25T03:41:47.167Z,83.00
2022-11-25T03:44:09.016Z,82.99
2022-11-25T03:46:31.512Z,82.53
2022-11-25T03:48:55.341Z,82.54
2022-11-25T03:51:17.834Z,82.53
2022-11-25T03:53:39.741Z,82.65
2022-11-25T03:56:03.649Z,82.49
2022-11-25T03:58:25.593Z,82.56
2022-11-25T04:00:47.603Z,82.34
2022-11-25T04:03:09.949Z,82.32
2022-11-25T04:05:31.794Z,82.40
2022-11-25T04:07:58.201Z,82.34
2022-11-25T04:10:21.085Z,82.43
2022-11-25T04:12:48.697Z,82.27
2022-11-25T04:15:33.438Z,82.41
2022-11-25T04:17:55.880Z,82.67
2022-11-25T04:20:17.880Z,82.72
2022-11-25T04:22:45.831Z,82.33
2022-11-25T04:25:10.679Z,82.58
2022-11-25T04:27:32.854Z,82.32
2022-11-25T04:29:54.732Z,82.41
2022-11-25T04:32:17.505Z,82.34
2022-11-25T04:34:40.520Z,82.33
2022-11-25T04:37:03.462Z,82.24
2022-11-25T04:39:26.931Z,82.29
2022-11-25T04:42:12.493Z,82.21
2022-11-25T04:44:34.890Z,82.15
2022-11-25T04:46:57.641Z,82.18
2022-11-25T04:49:19.534Z,82.48
2022-11-25T04:51:41.374Z,82.53
2022-11-25T04:54:03.329Z,82.74
2022-11-25T04:56:26.796Z,83.41
2022-11-25T04:59:09.154Z,83.41
2022-11-25T05:01:34.889Z,83.71
2022-11-25T05:04:12.575Z,83.97
2022-11-25T05:06:34.369Z,83.97
2022-11-25T05:08:56.444Z,84.01
2022-11-25T05:11:20.385Z,84.03
2022-11-25T05:13:42.657Z,84.59
2022-11-25T05:16:04.865Z,84.75
2022-11-25T05:18:26.763Z,84.97
2022-11-25T05:20:48.529Z,85.26
2022-11-25T05:23:13.434Z,85.47
2022-11-25T05:25:35.730Z,85.28
2022-11-25T05:28:36.020Z,85.49
2022-11-25T05:30:58.656Z,85.51
2022-11-25T05:33:20.807Z,85.72
2022-11-25T05:35:42.802Z,86.11
2022-11-25T05:38:04.686Z,85.95
2022-11-25T05:40:27.775Z,85.93
2022-11-25T05:43:01.902Z,85.88
2022-11-25T05:45:25.509Z,86.05
2022-11-25T05:47:47.379Z,85.62
2022-11-25T05:50:13.493Z,85.83
2022-11-25T05:52:36.194Z,85.85
2022-11-25T05:54:58.020Z,85.58
2022-11-25T05:57:21.230Z,85.48
2022-11-25T05:59:50.031Z,85.55
2022-11-25T06:02:19.115Z,85.25
2022-11-25T06:04:41.449Z,85.49
2022-11-25T06:07:04.028Z,85.29
2022-11-25T06:09:25.866Z,85.51
2022-11-25T06:11:47.773Z,85.80
2022-11-25T06:14:10.091Z,85.89
2022-11-25T06:16:32.186Z,85.72
2022-11-25T06:19:08.343Z,85.55
2022-11-25T06:21:31.662Z,85.80
2022-11-25T06:23:53.479Z,86.00
2022-11-25T06:26:20.039Z,85.90
2022-11-25T06:28:42.509Z,86.04
2022-11-25T06:31:10.503Z,86.39
2022-11-25T06:33:38.315Z,86.63
2022-11-25T06:36:06.415Z,86.38
2022-11-25T06:38:28.363Z,86.41
2022-11-25T06:40:50.307Z,86.74
2022-11-25T06:43:12.167Z,86.77
2022-11-25T06:45:34.328Z,86.62
2022-11-25T06:47:57.286Z,86.95
2022-11-25T06:50:19.483Z,86.65
2022-11-25T06:52:41.316Z,86.58
2022-11-25T06:55:04.684Z,86.44
2022-11-25T06:57:26.559Z,86.48
2022-11-25T06:59:48.561Z,86.45
2022-11-25T07:02:12.464Z,86.52
2022-11-25T07:04:35.296Z,86.48
2022-11-25T07:06:57.313Z,86.96
2022-11-25T07:09:22.666Z,86.90
2022-11-25T07:11:44.485Z,86.78
2022-11-25T07:14:12.104Z,86.83
2022-11-25T07:16:34.875Z,86.83
2022-11-25T07:18:59.898Z,86.80
2022-11-25T07:21:24.890Z,86.73
2022-11-25T07:23:47.732Z,86.62
2022-11-25T07:26:21.789Z,86.29
2022-11-25T07:28:44.292Z,86.26
2022-11-25T07:31:32.435Z,86.54
2022-11-25T07:33:59.726Z,86.44
2022-11-25T07:36:22.245Z,86.19
2022-11-25T07:38:46.737Z,86.22
2022-11-25T07:41:13.397Z,86.37
2022-11-25T07:43:36.249Z,86.05
2022-11-25T07:46:14.238Z,85.92
2022-11-25T07:48:36.070Z,86.24
2022-11-25T07:50:57.885Z,86.09
2022-11-25T07:53:19.730Z,86.40
2022-11-25T07:55:41.764Z,86.47
2022-11-25T07:58:03.904Z,86.39
2022-11-25T08:00:25.990Z,86.68
2022-11-25T08:02:47.807Z,86.72
2022-11-25T08:05:10.001Z,86.54
2022-11-25T08:07:36.296Z,86.83
2022-11-25T08:09:58.712Z,86.76
2022-11-25T08:12:20.577Z,86.46
2022-11-25T08:14:42.588Z,86.55
2022-11-25T08:17:06.099Z,86.50
2022-11-25T08:19:31.421Z,86.79
2022-11-25T08:21:54.578Z,86.59
2022-11-25T08:24:20.430Z,86.72
2022-11-25T08:26:43.066Z,86.70
2022-11-25T08:29:07.418Z,86.51
2022-11-25T08:31:36.610Z,86.15
2022-11-25T08:33:59.329Z,86.34
2022-11-25T08:36:22.939Z,86.26
2022-11-25T08:38:48.496Z,86.47
2022-11-25T08:41:22.116Z,86.14
2022-11-25T08:43:44.164Z,86.16
2022-11-25T08:46:18.168Z,86.13
2022-11-25T08:48:41.140Z,85.89
2022-11-25T08:51:08.629Z,85.72
2022-11-25T08:53:30.513Z,85.71
2022-11-25T08:55:52.319Z,85.31
2022-11-25T08:58:14.314Z,85.08
2022-11-25T09:00:38.119Z,85.06
2022-11-25T09:03:00.031Z,84.80
2022-11-25T09:05:22.059Z,84.54
2022-11-25T09:07:44.390Z,84.30
2022-11-25T09:10:10.266Z,83.71
2022-11-25T09:12:32.214Z,83.50
2022-11-25T09:14:54.001Z,83.75
2022-11-25T09:17:16.508Z,83.50
2022-11-25T09:19:39.325Z,83.24
2022-11-25T09:22:01.193Z,83.29
2022-11-25T09:24:23.156Z,83.21
2022-11-25T09:26:45.548Z,82.96
2022-11-25T09:29:08.581Z,82.91
2022-11-25T09:31:30.683Z,82.88
2022-11-25T09:33:52.925Z,82.57
2022-11-25T09:36:17.426Z,82.55
2022-11-25T09:38:43.113Z,82.19
2022-11-25T09:41:44.535Z,82.12
2022-11-25T09:44:54.232Z,81.93
2022-11-25T09:47:47.077Z,81.75
2022-11-25T09:50:30.758Z,81.18
2022-11-25T09:53:40.691Z,80.73
2022-11-25T09:56:08.551Z,80.86
2022-11-25T09:58:48.221Z,80.43
2022-11-25T10:01:20.719Z,79.90
2022-11-25T10:03:58.707Z,79.86
2022-11-25T10:06:30.063Z,79.55
2022-11-25T10:09:14.799Z,79.53
2022-11-25T10:11:51.132Z,79.06
2022-11-25T10:14:44.887Z,79.10
2022-11-25T10:17:09.744Z,79.22
2022-11-25T10:20:01.887Z,78.50
2022-11-25T10:22:27.610Z,78.84
2022-11-25T10:24:53.470Z,77.40
2022-11-25T10:27:25.187Z,77.71
2022-11-25T10:30:14.666Z,77.31
2022-11-25T10:32:50.967Z,77.27
2022-11-25T10:35:30.542Z,77.44
2022-11-25T10:37:58.132Z,76.69
2022-11-25T10:40:19.984Z,76.06
2022-11-25T10:42:43.906Z,75.49
2022-11-25T10:45:09.056Z,74.80
2022-11-25T10:47:52.937Z,74.54
2022-11-25T10:50:29.194Z,74.92
2022-11-25T10:52:58.406Z,73.85
2022-11-25T10:55:27.799Z,74.10
2022-11-25T10:57:49.692Z,74.10
2022-11-25T11:00:32.748Z,73.84
2022-11-25T11:02:56.308Z,73.59
2022-11-25T11:05:30.663Z,74.14
2022-11-25T11:08:41.224Z,74.21
2022-11-25T11:11:22.329Z,74.02
2022-11-25T11:13:46.883Z,73.54
2022-11-25T11:16:26.918Z,72.88
2022-11-25T11:18:51.071Z,73.21
2022-11-25T11:21:29.004Z,72.93
2022-11-25T11:23:55.462Z,72.84
2022-11-25T11:26:36.224Z,72.94
2022-11-25T11:29:19.594Z,71.66
2022-11-25T11:31:58.097Z,70.66
2022-11-25T11:34:39.361Z,70.56
2022-11-25T11:37:13.657Z,70.55
2022-11-25T11:40:16.990Z,70.83
2022-11-25T11:43:00.485Z,70.42
2022-11-25T11:45:25.460Z,70.14
2022-11-25T11:48:24.413Z,69.91
2022-11-25T11:51:07.123Z,69.33
2022-11-25T11:54:02.871Z,68.96
2022-11-25T11:56:59.827Z,69.46
2022-11-25T11:59:40.277Z,69.48
2022-11-25T12:02:17.829Z,69.04
2022-11-25T12:05:02.479Z,69.25
2022-11-25T12:08:00.978Z,68.29
2022-11-25T12:10:38.889Z,68.40
2022-11-25T12:13:16.271Z,68.48
2022-11-25T12:15:57.702Z,68.24
2022-11-25T12:19:08.058Z,67.97
2022-11-25T12:21:42.063Z,68.62
2022-11-25T12:24:50.135Z,68.10
2022-11-25T12:27:27.407Z,67.42
2022-11-25T12:30:00.795Z,67.09
2022-11-25T12:32:38.015Z,67.50
2022-11-25T12:35:16.464Z,67.45
2022-11-25T12:37:50.818Z,67.36
2022-11-25T12:40:23.373Z,67.53
2022-11-25T12:42:49.079Z,66.49
2022-11-25T12:45:26.065Z,66.53
2022-11-25T12:47:48.658Z,66.48
2022-11-25T12:50:25.465Z,65.95
2022-11-25T12:53:12.589Z,66.42
2022-11-25T12:55:37.358Z,66.51
2022-11-25T12:58:24.187Z,66.60
2022-11-25T13:01:32.540Z,66.54
2022-11-25T13:04:16.006Z,66.44
2022-11-25T13:07:13.315Z,65.92
2022-11-25T13:10:03.194Z,66.38
2022-11-25T13:12:42.810Z,66.61
2022-11-25T13:15:34.891Z,66.72
2022-11-25T13:18:09.576Z,66.66
2022-11-25T13:20:31.655Z,66.73
2022-11-25T13:23:10.862Z,67.10
2022-11-25T13:25:33.990Z,67.38
2022-11-25T13:27:59.240Z,67.56
2022-11-25T13:30:33.561Z,67.62
2022-11-25T13:32:55.757Z,67.98
2022-11-25T13:35:24.759Z,67.99
2022-11-25T13:37:46.888Z,68.39
2022-11-25T13:40:25.475Z,67.92
2022-11-25T13:42:48.053Z,68.39
2022-11-25T13:45:43.834Z,68.44
2022-11-25T13:48:13.399Z,68.43
2022-11-25T13:51:03.509Z,68.88
2022-11-25T13:53:36.234Z,68.73
2022-11-25T13:56:37.804Z,68.75
2022-11-25T13:59:12.268Z,68.59
2022-11-25T14:01:34.424Z,68.73
2022-11-25T14:04:00.449Z,69.12
2022-11-25T14:06:51.335Z,69.20
2022-11-25T14:09:38.072Z,69.06
2022-11-25T14:12:27.395Z,69.41
2022-11-25T14:14:52.195Z,69.70
2022-11-25T14:19:03.218Z,69.92
2022-11-25T14:21:36.037Z,70.05
2022-11-25T14:24:17.460Z,70.22
2022-11-25T14:26:50.265Z,70.31
2022-11-25T14:29:26.526Z,70.31
2022-11-25T14:31:57.165Z,70.30
2022-11-25T14:34:31.992Z,70.48
2022-11-25T14:37:06.202Z,70.62
2022-11-25T14:39:47.356Z,70.44
2022-11-25T14:42:17.788Z,70.76
2022-11-25T14:44:47.210Z,70.65
2022-11-25T14:47:09.127Z,70.81
2022-11-25T14:50:18.887Z,70.96
2022-11-25T14:52:38.230Z,70.79
2022-11-25T14:55:05.818Z,70.99
2022-11-25T14:57:34.457Z,71.00
2022-11-25T15:00:05.531Z,71.39
2022-11-25T15:02:35.025Z,71.03
2022-11-25T15:05:19.115Z,71.21
2022-11-25T15:07:59.502Z,71.19
2022-11-25T15:10:39.678Z,71.33
2022-11-25T15:13:20.923Z,71.98
2022-11-25T15:15:46.544Z,71.59
2022-11-25T15:18:19.244Z,72.00
2022-11-25T15:20:41.195Z,71.82
2022-11-25T15:23:03.364Z,71.73
2022-11-25T15:25:25.480Z,71.56
2022-11-25T15:27:52.919Z,71.99
2022-11-25T15:30:34.165Z,72.15
2022-11-25T15:32:57.349Z,72.10
2022-11-25T15:35:24.277Z,72.23
2022-11-25T15:37:46.142Z,72.36
2022-11-25T15:40:32.852Z,72.83
2022-11-25T15:42:54.888Z,72.71
2022-11-25T15:45:21.970Z,72.65
2022-11-25T15:47:45.479Z,72.77
2022-11-25T15:50:26.366Z,72.68
2022-11-25T15:53:00.420Z,73.13
2022-11-25T15:55:38.940Z,73.04
2022-11-25T15:58:18.556Z,73.58
2022-11-25T16:00:41.845Z,73.71
2022-11-25T16:03:18.082Z,73.75
2022-11-25T16:05:54.439Z,73.91
2022-11-25T16:08:19.288Z,74.27
2022-11-25T16:10:41.738Z,74.24
2022-11-25T16:13:22.777Z,74.90
2022-11-25T16:15:54.953Z,74.92
2022-11-25T16:18:39.075Z,74.93
2022-11-25T16:21:09.704Z,75.10
2022-11-25T16:23:41.888Z,75.29
2022-11-25T16:26:12.590Z,75.38
2022-11-25T16:28:34.597Z,75.91
2022-11-25T16:30:59.458Z,75.91
2022-11-25T16:33:21.331Z,75.85
2022-11-25T16:35:43.979Z,75.79
2022-11-25T16:38:06.195Z,76.15
2022-11-25T16:40:28.236Z,75.96
2022-11-25T16:42:51.708Z,75.95
2022-11-25T16:45:24.077Z,76.10
2022-11-25T16:47:45.913Z,76.10
2022-11-25T16:50:19.810Z,76.10
2022-11-25T16:52:42.378Z,76.23
2022-11-25T16:55:04.771Z,76.11
2022-11-25T16:57:26.881Z,76.07
2022-11-25T16:59:53.233Z,76.16
2022-11-25T17:02:22.204Z,76.59
2022-11-25T17:04:45.133Z,76.29
2022-11-25T17:09:55.401Z,77.25
2022-11-25T17:12:27.030Z,77.08
2022-11-25T17:14:49.492Z,77.12
2022-11-25T17:17:24.387Z,77.56
2022-11-25T17:19:46.745Z,77.48
2022-11-25T17:22:21.968Z,77.45
2022-11-25T17:24:44.345Z,77.30
2022-11-25T17:27:06.319Z,77.45
2022-11-25T17:29:39.852Z,77.72
2022-11-25T17:32:04.353Z,77.45
2022-11-25T17:34:26.226Z,77.49
2022-11-25T17:36:48.348Z,77.51
2022-11-25T17:39:14.963Z,77.75
2022-11-25T17:41:41.885Z,77.70
2022-11-25T17:44:03.940Z,78.28
2022-11-25T17:46:29.553Z,78.41
2022-11-25T17:48:51.520Z,78.90
2022-11-25T17:51:14.939Z,79.26
2022-11-25T17:53:38.064Z,79.56
2022-11-25T17:55:59.917Z,79.33
2022-11-25T17:58:22.184Z,79.59
2022-11-25T18:00:45.076Z,79.76
2022-11-25T18:03:13.004Z,79.92
2022-11-25T18:05:35.066Z,80.38
2022-11-25T18:07:57.046Z,80.15
2022-11-25T18:10:24.776Z,80.21
2022-11-25T18:12:51.124Z,80.51
2022-11-25T18:15:30.577Z,80.29
2022-11-25T18:18:01.896Z,80.51
2022-11-25T18:20:26.039Z,80.44
2022-11-25T18:22:48.034Z,80.66
2022-11-25T18:25:19.042Z,80.85
2022-11-25T18:27:41.654Z,80.47
2022-11-25T18:30:07.221Z,80.19
2022-11-25T18:32:29.126Z,80.39
2022-11-25T18:34:52.018Z,80.27
2022-11-25T18:37:14.131Z,80.05
2022-11-25T18:39:35.875Z,80.40
2022-11-25T18:42:07.054Z,80.20
2022-11-25T18:44:29.186Z,80.21
2022-11-25T18:46:51.663Z,80.17
2022-11-25T18:49:15.073Z,80.29
2022-11-25T18:51:36.948Z,80.26
2022-11-25T18:53:58.816Z,80.08
2022-11-25T18:56:20.620Z,80.19
2022-11-25T18:58:51.502Z,80.20
2022-11-25T19:01:15.333Z,80.05
2022-11-25T19:03:37.282Z,80.15
2022-11-25T19:06:01.015Z,79.81
2022-11-25T19:08:23.357Z,79.79
2022-11-25T19:10:47.597Z,79.96
2022-11-25T19:13:26.908Z,79.76
2022-11-25T19:15:48.787Z,79.48
2022-11-25T19:18:20.226Z,79.61
2022-11-25T19:20:42.349Z,79.56
2022-11-25T19:23:28.097Z,79.26
2022-11-25T19:25:50.042Z,79.39
2022-11-25T19:28:17.716Z,79.56
2022-11-25T19:30:39.715Z,79.66
2022-11-25T19:33:03.060Z,79.83
2022-11-25T19:35:35.746Z,80.00
2022-11-25T19:37:57.581Z,79.85
2022-11-25T19:40:22.535Z,80.31
2022-11-25T19:42:48.530Z,80.57
2022-11-25T19:45:13.483Z,80.86
2022-11-25T19:47:35.409Z,80.47
2022-11-25T19:50:01.382Z,80.42
2022-11-25T19:52:34.937Z,80.99
2022-11-25T19:54:56.733Z,80.83
2022-11-25T19:57:22.726Z,81.10
2022-11-25T19:59:45.061Z,81.00
2022-11-25T20:02:21.581Z,81.17
2022-11-25T20:04:46.666Z,81.42
2022-11-25T20:07:17.386Z,81.26
2022-11-25T20:09:40.351Z,81.17
2022-11-25T20:12:20.449Z,81.51
2022-11-25T20:14:42.304Z,81.32
2022-11-25T20:17:06.324Z,81.59
2022-11-25T20:19:28.258Z,81.57
2022-11-25T20:21:50.183Z,81.68
2022-11-25T20:24:19.027Z,81.23
2022-11-25T20:26:46.100Z,81.23
2022-11-25T20:29:18.373Z,81.20
2022-11-25T20:31:40.198Z,81.32
2022-11-25T20:34:02.068Z,81.33
2022-11-25T20:36:31.692Z,80.78
2022-11-25T20:38:56.098Z,81.46
2022-11-25T20:41:22.940Z,81.58
2022-11-25T20:43:50.354Z,81.49
2022-11-25T20:46:17.960Z,81.76
2022-11-25T20:48:39.999Z,81.37
2022-11-25T20:51:03.703Z,81.41
2022-11-25T20:53:27.956Z,81.47
2022-11-25T20:55:50.822Z,81.95
2022-11-25T20:58:26.024Z,81.74
2022-11-25T21:00:50.702Z,81.89
2022-11-25T21:03:16.307Z,81.57
2022-11-25T21:05:38.293Z,82.23
2022-11-25T21:08:01.683Z,82.11
2022-11-25T21:10:34.868Z,82.64
2022-11-25T21:12:57.357Z,82.26
2022-11-25T21:15:24.535Z,82.45
2022-11-25T21:17:46.789Z,82.64
2022-11-25T21:20:09.345Z,82.45
2022-11-25T21:22:31.156Z,82.92
2022-11-25T21:24:53.064Z,83.06
2022-11-25T21:27:17.626Z,82.91
2022-11-25T21:29:41.491Z,82.95
2022-11-25T21:32:03.640Z,83.03
2022-11-25T21:34:25.658Z,83.06
2022-11-25T21:36:51.806Z,82.78
2022-11-25T21:39:34.013Z,83.17
2022-11-25T21:42:03.308Z,83.34
2022-11-25T21:44:36.474Z,83.27
2022-11-25T21:46:58.726Z,82.70
2022-11-25T21:49:21.281Z,83.01
2022-11-25T21:51:43.097Z,82.96
2022-11-25T21:54:05.132Z,83.16
2022-11-25T21:56:31.912Z,83.33
2022-11-25T21:58:58.348Z,83.32
2022-11-25T22:01:21.675Z,83.15
2022-11-25T22:03:43.535Z,83.37
2022-11-25T22:06:18.777Z,83.12
2022-11-25T22:08:40.528Z,83.07
2022-11-25T22:11:02.354Z,83.08
2022-11-25T22:13:37.979Z,83.19
2022-11-25T22:16:00.137Z,83.29
2022-11-25T22:18:31.908Z,83.44
2022-11-25T22:20:53.811Z,83.80
2022-11-25T22:23:19.332Z,83.65
2022-11-25T22:25:41.514Z,83.44
2022-11-25T22:28:04.414Z,83.40
2022-11-25T22:30:26.311Z,83.40
2022-11-25T22:33:02.066Z,83.17
2022-11-25T22:35:23.895Z,83.26
2022-11-25T22:37:53.479Z,83.39
2022-11-25T22:40:17.484Z,83.69
2022-11-25T22:42:42.758Z,83.75
2022-11-25T22:45:08.127Z,84.17
2022-11-25T22:47:47.964Z,83.99
2022-11-25T22:50:28.261Z,83.70
2022-11-25T22:52:52.011Z,84.28
2022-11-25T22:55:31.848Z,84.39
2022-11-25T22:57:57.903Z,83.95
2022-11-25T23:00:24.288Z,83.79
2022-11-25T23:02:48.184Z,84.09
2022-11-25T23:05:31.861Z,84.37
2022-11-25T23:07:55.419Z,84.01
2022-11-25T23:10:21.850Z,83.78
2022-11-25T23:12:44.272Z,84.24
2022-11-25T23:15:06.734Z,84.51
2022-11-25T23:17:28.716Z,84.34
2022-11-25T23:19:52.194Z,84.06
2022-11-25T23:22:14.156Z,84.23
2022-11-25T23:24:36.710Z,84.08
2022-11-25T23:26:58.730Z,84.57
2022-11-25T23:29:20.515Z,84.04
2022-11-25T23:31:42.891Z,84.14
2022-11-25T23:34:06.990Z,83.97
2022-11-25T23:36:38.948Z,83.87
2022-11-25T23:39:03.838Z,84.07
2022-11-25T23:41:33.969Z,84.20
2022-11-25T23:43:56.464Z,84.08
2022-11-25T23:46:25.077Z,84.71
2022-11-25T23:48:56.085Z,84.76
2022-11-25T23:51:18.044Z,84.87
2022-11-25T23:53:41.165Z,84.66
2022-11-25T23:56:02.994Z,84.86
2022-11-25T23:58:25.228Z,84.84
